createdAt,value
2023-02-26T00:01:49.357Z,98912.38
2023-02-26T00:04:17.849Z,98905.75
2023-02-26T00:06:57.294Z,98908.22
2023-02-26T00:09:26.503Z,98911.88
2023-02-26T00:11:55.790Z,98911.06
2023-02-26T00:14:24.937Z,98913.06
2023-02-26T00:17:30.717Z,98918.38
2023-02-26T00:19:59.455Z,98913.06
2023-02-26T00:22:28.664Z,98914.03
2023-02-26T00:24:57.019Z,98916.69
2023-02-26T00:27:27.548Z,98923.03
2023-02-26T00:29:56.555Z,98920.06
2023-02-26T00:32:25.547Z,98924.22
2023-02-26T00:34:54.358Z,98921.56
2023-02-26T00:38:00.602Z,98923.38
2023-02-26T00:40:49.897Z,98928.03
2023-02-26T00:43:25.207Z,98916.06
2023-02-26T00:46:29.968Z,98924.88
2023-02-26T00:49:35.470Z,98915.09
2023-02-26T00:52:06.194Z,98919.75
2023-02-26T00:54:35.542Z,98918.75
2023-02-26T00:57:06.177Z,98911.94
2023-02-26T00:59:34.707Z,98902.28
2023-02-26T01:02:03.320Z,98903.97
2023-02-26T01:04:32.206Z,98903.31
2023-02-26T01:07:00.883Z,98902.47
2023-02-26T01:09:33.686Z,98899.81
2023-02-26T01:12:08.820Z,98896.84
2023-02-26T01:14:37.855Z,98901.63
2023-02-26T01:17:11.957Z,98900.81
2023-02-26T01:20:05.638Z,98897.50
2023-02-26T01:23:01.133Z,98888.72
2023-02-26T01:25:43.412Z,98878.94
2023-02-26T01:28:12.105Z,98883.56
2023-02-26T01:30:41.311Z,98884.53
2023-02-26T01:33:26.454Z,98892.03
2023-02-26T01:36:10.634Z,98883.38
2023-02-26T01:39:25.210Z,98890.88
2023-02-26T01:42:13.557Z,98882.25
2023-02-26T01:45:09.761Z,98884.91
2023-02-26T01:47:54.151Z,98888.53
2023-02-26T01:50:32.327Z,98882.94
2023-02-26T01:53:26.478Z,98882.56
2023-02-26T01:56:05.562Z,98886.25
2023-02-26T01:58:35.874Z,98878.28
2023-02-26T02:01:04.618Z,98866.97
2023-02-26T02:03:37.831Z,98874.28
2023-02-26T02:06:22.932Z,98876.75
2023-02-26T02:08:51.811Z,98877.59
2023-02-26T02:11:20.156Z,98876.75
2023-02-26T02:14:18.368Z,98898.03
2023-02-26T02:16:58.207Z,98891.38
2023-02-26T02:20:10.206Z,98905.34
2023-02-26T02:23:02.067Z,98901.84
2023-02-26T02:26:01.613Z,98912.50
2023-02-26T02:29:01.543Z,98915.31
2023-02-26T02:32:05.297Z,98941.88
2023-02-26T02:34:40.411Z,98964.47
2023-02-26T02:37:38.388Z,98989.72
2023-02-26T02:40:11.673Z,98969.47
2023-02-26T02:42:46.850Z,98975.75
2023-02-26T02:45:24.036Z,98977.59
2023-02-26T02:48:02.054Z,98975.63
2023-02-26T02:50:35.775Z,98995.03
2023-02-26T02:53:33.277Z,99003.69
2023-02-26T02:56:28.232Z,98982.91
2023-02-26T02:59:13.580Z,99004.84
2023-02-26T03:01:41.900Z,99010.16
2023-02-26T03:04:13.905Z,99015.78
2023-02-26T03:06:42.644Z,99034.22
2023-02-26T03:09:13.415Z,99044.19
2023-02-26T03:11:42.619Z,99046.69
2023-02-26T03:14:11.994Z,99036.38
2023-02-26T03:16:50.325Z,99035.06
2023-02-26T03:19:26.419Z,99043.84
2023-02-26T03:22:39.698Z,99044.72
2023-02-26T03:25:27.573Z,99064.44
2023-02-26T03:28:17.869Z,99050.50
2023-02-26T03:31:10.508Z,99064.13
2023-02-26T03:33:54.670Z,99055.66
2023-02-26T03:37:06.103Z,99065.97
2023-02-26T03:39:42.287Z,99076.75
2023-02-26T03:42:24.776Z,99068.94
2023-02-26T03:45:19.424Z,99067.09
2023-02-26T03:47:54.205Z,99091.16
2023-02-26T03:50:35.681Z,99071.44
2023-02-26T03:53:39.076Z,99056.78
2023-02-26T03:56:42.153Z,99092.19
2023-02-26T03:59:33.692Z,99079.88
2023-02-26T04:02:31.790Z,99096.81
2023-02-26T04:05:19.006Z,99095.34
2023-02-26T04:07:49.359Z,99111.94
2023-02-26T04:10:22.067Z,99103.13
2023-02-26T04:12:50.404Z,99125.38
2023-02-26T04:15:19.354Z,99108.63
2023-02-26T04:17:48.225Z,99109.75
2023-02-26T04:20:17.253Z,99108.94
2023-02-26T04:22:45.605Z,99125.03
2023-02-26T04:25:14.230Z,99127.69
2023-02-26T04:27:42.995Z,99113.41
2023-02-26T04:30:12.876Z,99113.72
2023-02-26T04:32:41.705Z,99113.72
2023-02-26T04:35:13.163Z,99113.69
2023-02-26T04:37:42.251Z,99136.00
2023-02-26T04:40:11.897Z,99130.69
2023-02-26T04:42:40.591Z,99120.88
2023-02-26T04:45:09.978Z,99115.56
2023-02-26T04:47:41.309Z,99115.69
2023-02-26T04:50:11.066Z,99120.31
2023-02-26T04:52:39.408Z,99123.81
2023-02-26T04:55:08.852Z,99121.81
2023-02-26T04:57:39.959Z,99122.31
2023-02-26T05:00:12.109Z,99126.66
2023-02-26T05:02:41.810Z,99155.16
2023-02-26T05:05:10.602Z,99123.28
2023-02-26T05:07:38.993Z,99126.13
2023-02-26T05:10:08.464Z,99119.81
2023-02-26T05:12:36.947Z,99117.81
2023-02-26T05:15:06.521Z,99118.34
2023-02-26T05:17:35.474Z,99133.81
2023-02-26T05:20:05.443Z,99133.50
2023-02-26T05:22:33.874Z,99143.16
2023-02-26T05:25:02.832Z,99141.69
2023-02-26T05:27:31.543Z,99116.09
2023-02-26T05:30:00.593Z,99139.53
2023-02-26T05:32:29.142Z,99146.72
2023-02-26T05:34:59.068Z,99150.69
2023-02-26T05:37:27.496Z,99150.19
2023-02-26T05:39:56.134Z,99144.88
2023-02-26T05:42:25.395Z,99145.38
2023-02-26T05:44:54.143Z,99152.34
2023-02-26T05:47:22.501Z,99122.94
2023-02-26T05:49:51.184Z,99143.69
2023-02-26T05:52:19.585Z,99133.72
2023-02-26T05:54:48.230Z,99121.63
2023-02-26T05:57:16.613Z,99132.91
2023-02-26T05:59:45.308Z,99137.06
2023-02-26T06:02:13.806Z,99149.53
2023-02-26T06:04:42.586Z,99159.50
2023-02-26T06:07:11.119Z,99160.81
2023-02-26T06:09:39.803Z,99156.53
2023-02-26T06:12:08.371Z,99157.16
2023-02-26T06:14:37.180Z,99166.97
2023-02-26T06:17:06.866Z,99171.59
2023-02-26T06:19:35.651Z,99191.22
2023-02-26T06:22:04.097Z,99191.22
2023-02-26T06:24:32.939Z,99209.31
2023-02-26T06:27:01.329Z,99211.13
2023-02-26T06:29:30.054Z,99215.94
2023-02-26T06:32:01.447Z,99217.59
2023-02-26T06:34:30.185Z,99230.22
2023-02-26T06:36:58.583Z,99226.06
2023-02-26T06:39:27.536Z,99224.38
2023-02-26T06:41:55.904Z,99233.38
2023-02-26T06:44:24.605Z,99230.03
2023-02-26T06:46:53.064Z,99219.56
2023-02-26T06:49:21.936Z,99218.91
2023-02-26T06:51:50.345Z,99223.53
2023-02-26T06:54:19.269Z,99239.31
2023-02-26T06:56:47.646Z,99240.78
2023-02-26T06:59:16.630Z,99246.63
2023-02-26T07:01:45.100Z,99252.63
2023-02-26T07:04:13.746Z,99262.75
2023-02-26T07:06:42.368Z,99264.59
2023-02-26T07:09:11.358Z,99273.22
2023-02-26T07:11:39.886Z,99280.03
2023-02-26T07:14:08.549Z,99286.19
2023-02-26T07:16:36.900Z,99300.31
2023-02-26T07:19:05.612Z,99314.94
2023-02-26T07:21:33.867Z,99320.41
2023-02-26T07:24:02.543Z,99334.88
2023-02-26T07:26:30.958Z,99327.03
2023-02-26T07:28:59.593Z,99326.03
2023-02-26T07:31:28.286Z,99322.72
2023-02-26T07:33:57.117Z,99325.50
2023-02-26T07:36:25.786Z,99338.97
2023-02-26T07:38:54.692Z,99362.91
2023-02-26T07:41:23.690Z,99373.53
2023-02-26T07:43:52.483Z,99385.13
2023-02-26T07:46:20.896Z,99387.13
2023-02-26T07:48:49.639Z,99404.56
2023-02-26T07:51:18.000Z,99407.41
2023-02-26T07:53:46.650Z,99405.72
2023-02-26T07:56:15.108Z,99422.81
2023-02-26T07:58:43.738Z,99423.66
2023-02-26T08:01:12.138Z,99443.25
2023-02-26T08:03:40.792Z,99451.38
2023-02-26T08:06:09.148Z,99459.19
2023-02-26T08:08:38.302Z,99453.16
2023-02-26T08:11:06.964Z,99450.00
2023-02-26T08:13:36.094Z,99453.13
2023-02-26T08:16:05.438Z,99465.09
2023-02-26T08:18:34.789Z,99466.09
2023-02-26T08:21:03.821Z,99476.72
2023-02-26T08:23:32.872Z,99474.38
2023-02-26T08:26:07.097Z,99483.34
2023-02-26T08:28:36.051Z,99487.81
2023-02-26T08:31:05.007Z,99480.16
2023-02-26T08:33:34.045Z,99482.66
2023-02-26T08:36:02.675Z,99497.06
2023-02-26T08:38:31.855Z,99494.59
2023-02-26T08:41:00.641Z,99492.03
2023-02-26T08:43:30.151Z,99485.91
2023-02-26T08:45:59.865Z,99491.22
2023-02-26T08:48:29.115Z,99493.00
2023-02-26T08:50:57.690Z,99494.84
2023-02-26T08:53:26.719Z,99493.19
2023-02-26T08:55:55.286Z,99505.47
2023-02-26T08:58:24.273Z,99498.50
2023-02-26T09:00:52.848Z,99506.47
2023-02-26T09:03:21.771Z,99518.06
2023-02-26T09:05:51.996Z,99507.91
2023-02-26T09:08:21.535Z,99511.06
2023-02-26T09:10:50.298Z,99517.25
2023-02-26T09:13:19.181Z,99515.56
2023-02-26T09:15:49.550Z,99519.22
2023-02-26T09:18:18.459Z,99513.91
2023-02-26T09:20:47.259Z,99520.03
2023-02-26T09:23:16.158Z,99523.66
2023-02-26T09:25:44.751Z,99530.97
2023-02-26T09:28:13.938Z,99534.47
2023-02-26T09:30:42.635Z,99530.13
2023-02-26T09:33:11.678Z,99545.25
2023-02-26T09:35:40.239Z,99533.25
2023-02-26T09:38:09.237Z,99540.91
2023-02-26T09:40:43.807Z,99536.59
2023-02-26T09:43:55.932Z,99543.03
2023-02-26T09:46:51.328Z,99526.03
2023-02-26T09:49:58.852Z,99543.19
2023-02-26T09:52:37.828Z,99541.81
2023-02-26T09:55:32.602Z,99550.31
2023-02-26T09:58:06.522Z,99543.34
2023-02-26T10:01:10.765Z,99543.47
2023-02-26T10:04:37.840Z,99544.47
2023-02-26T10:07:37.672Z,99540.44
2023-02-26T10:10:33.546Z,99547.13
2023-02-26T10:13:02.782Z,99533.31
2023-02-26T10:15:38.039Z,99545.59
2023-02-26T10:18:20.206Z,99551.44
2023-02-26T10:21:28.317Z,99544.47
2023-02-26T10:24:04.944Z,99545.44
2023-02-26T10:26:50.723Z,99548.09
2023-02-26T10:29:41.221Z,99553.41
2023-02-26T10:32:33.706Z,99544.78
2023-02-26T10:35:14.613Z,99544.16
2023-02-26T10:38:00.149Z,99550.31
2023-02-26T10:40:50.147Z,99555.03
2023-02-26T10:43:38.701Z,99553.56
2023-02-26T10:46:40.496Z,99562.66
2023-02-26T10:49:41.135Z,99560.75
2023-02-26T10:52:19.858Z,99555.97
2023-02-26T10:55:24.365Z,99558.94
2023-02-26T10:58:06.912Z,99555.34
2023-02-26T11:00:35.985Z,99565.66
2023-02-26T11:03:05.936Z,99578.34
2023-02-26T11:05:34.840Z,99571.28
2023-02-26T11:08:28.777Z,99572.94
2023-02-26T11:10:59.279Z,99574.09
2023-02-26T11:13:30.595Z,99568.91
2023-02-26T11:16:15.476Z,99572.72
2023-02-26T11:18:54.298Z,99576.06
2023-02-26T11:21:31.043Z,99574.69
2023-02-26T11:24:29.181Z,99589.97
2023-02-26T11:26:59.174Z,99589.97
2023-02-26T11:29:28.103Z,99589.28
2023-02-26T11:31:58.479Z,99581.94
2023-02-26T11:34:27.467Z,99591.56
2023-02-26T11:36:57.825Z,99586.56
2023-02-26T11:39:29.958Z,99581.16
2023-02-26T11:42:01.443Z,99584.22
2023-02-26T11:44:42.377Z,99568.19
2023-02-26T11:47:16.969Z,99587.00
2023-02-26T11:49:57.247Z,99591.78
2023-02-26T11:55:37.912Z,99566.84
2023-02-26T11:58:20.652Z,99587.25
2023-02-26T12:00:52.739Z,99592.72
2023-02-26T12:03:24.639Z,99588.38
2023-02-26T12:05:53.583Z,99587.84
2023-02-26T12:08:40.896Z,99588.38
2023-02-26T12:11:43.570Z,99573.34
2023-02-26T12:14:28.066Z,99582.19
2023-02-26T12:17:32.384Z,99580.50
2023-02-26T12:20:20.169Z,99583.16
2023-02-26T12:23:13.636Z,99585.81
2023-02-26T12:26:00.301Z,99597.13
2023-02-26T12:28:48.765Z,99577.97
2023-02-26T12:31:50.628Z,99596.50
2023-02-26T12:34:57.437Z,99598.41
2023-02-26T12:37:38.209Z,99607.13
2023-02-26T12:40:31.170Z,99602.00
2023-02-26T12:43:30.512Z,99604.41
2023-02-26T12:47:05.545Z,99602.81
2023-02-26T12:50:09.817Z,99597.78
2023-02-26T12:53:06.269Z,99584.91
2023-02-26T12:56:16.366Z,99603.28
2023-02-26T12:59:05.317Z,99592.25
2023-02-26T13:02:01.864Z,99599.41
2023-02-26T13:04:36.547Z,99608.19
2023-02-26T13:07:34.617Z,99602.34
2023-02-26T13:10:33.783Z,99614.97
2023-02-26T13:13:20.478Z,99630.22
2023-02-26T13:16:16.931Z,99626.88
2023-02-26T13:19:17.902Z,99634.31
2023-02-26T13:22:08.902Z,99629.13
2023-02-26T13:25:06.286Z,99636.44
2023-02-26T13:27:37.886Z,99640.63
2023-02-26T13:30:28.282Z,99646.09
2023-02-26T13:33:01.907Z,99633.22
2023-02-26T13:35:48.605Z,99646.38
2023-02-26T13:38:32.391Z,99650.84
2023-02-26T13:41:22.597Z,99653.66
2023-02-26T13:44:33.247Z,99650.41
2023-02-26T13:47:33.713Z,99655.06
2023-02-26T13:50:27.881Z,99652.56
2023-02-26T13:53:04.874Z,99659.81
2023-02-26T13:55:44.962Z,99664.31
2023-02-26T13:58:39.334Z,99670.91
2023-02-26T14:01:57.481Z,99672.31
2023-02-26T14:04:29.818Z,99674.84
2023-02-26T14:07:14.639Z,99691.91
2023-02-26T14:10:01.382Z,99679.91
2023-02-26T14:12:34.814Z,99679.59
2023-02-26T14:16:03.226Z,99690.69
2023-02-26T14:18:47.868Z,99697.97
2023-02-26T14:21:28.881Z,99698.78
2023-02-26T14:24:32.553Z,99699.06
2023-02-26T14:27:24.456Z,99705.38
2023-02-26T14:29:56.376Z,99707.19
2023-02-26T14:32:50.688Z,99720.63
2023-02-26T14:35:31.751Z,99714.47
2023-02-26T14:38:14.266Z,99710.59
2023-02-26T14:40:51.927Z,99722.59
2023-02-26T14:43:37.003Z,99719.25
2023-02-26T14:46:07.210Z,99731.97
2023-02-26T14:48:36.520Z,99735.16
2023-02-26T14:51:39.876Z,99739.78
2023-02-26T14:54:46.151Z,99734.06
2023-02-26T14:57:15.998Z,99751.38
2023-02-26T15:00:49.558Z,99750.69
2023-02-26T15:03:42.247Z,99765.78
2023-02-26T15:06:35.586Z,99765.91
2023-02-26T15:09:23.895Z,99775.72
2023-02-26T15:12:17.708Z,99785.50
2023-02-26T15:15:07.599Z,99783.94
2023-02-26T15:18:31.017Z,99789.38
2023-02-26T15:21:12.038Z,99801.84
2023-02-26T15:23:57.188Z,99801.97
2023-02-26T15:26:35.238Z,99801.44
2023-02-26T15:29:07.519Z,99810.78
2023-02-26T15:32:01.320Z,99809.53
2023-02-26T15:34:31.204Z,99810.25
2023-02-26T15:37:00.854Z,99828.00
2023-02-26T15:39:29.378Z,99828.13
2023-02-26T15:41:58.348Z,99833.44
2023-02-26T15:44:30.959Z,99852.84
2023-02-26T15:47:03.262Z,99842.38
2023-02-26T15:49:40.626Z,99844.06
2023-02-26T15:52:13.064Z,99856.50
2023-02-26T15:54:50.699Z,99852.16
2023-02-26T15:57:19.479Z,99858.41
2023-02-26T15:59:49.929Z,99867.38
2023-02-26T16:02:37.728Z,99856.91
2023-02-26T16:05:06.553Z,99878.81
2023-02-26T16:07:35.466Z,99884.69
2023-02-26T16:10:39.414Z,99890.56
2023-02-26T16:13:08.807Z,99896.44
2023-02-26T16:15:39.195Z,99900.75
2023-02-26T16:18:18.677Z,99899.50
2023-02-26T16:20:48.980Z,99882.31
2023-02-26T16:23:22.721Z,99898.66
2023-02-26T16:25:54.965Z,99907.84
2023-02-26T16:28:37.997Z,99915.13
2023-02-26T16:31:07.286Z,99926.13
2023-02-26T16:33:36.085Z,99936.75
2023-02-26T16:36:16.131Z,99935.63
2023-02-26T16:38:50.025Z,99942.19
2023-02-26T16:41:23.897Z,99946.91
2023-02-26T16:43:56.968Z,99944.50
2023-02-26T16:46:37.789Z,99956.34
2023-02-26T16:49:34.813Z,99968.34
2023-02-26T16:52:03.206Z,99967.03
2023-02-26T16:54:38.411Z,99973.03
2023-02-26T16:57:19.238Z,99974.41
2023-02-26T16:59:53.858Z,99981.25
2023-02-26T17:02:32.205Z,99984.41
2023-02-26T17:05:25.315Z,99995.06
2023-02-26T17:08:06.226Z,99995.00
2023-02-26T17:11:02.820Z,100002.13
2023-02-26T17:13:33.311Z,99983.31
2023-02-26T17:16:04.308Z,99998.88
2023-02-26T17:18:33.266Z,100013.97
2023-02-26T17:21:05.861Z,100020.00
2023-02-26T17:23:37.259Z,100027.88
2023-02-26T17:26:06.336Z,100036.00
2023-02-26T17:28:39.982Z,100037.00
2023-02-26T17:31:08.877Z,100041.09
2023-02-26T17:33:37.467Z,100046.41
2023-02-26T17:36:07.601Z,100051.16
2023-02-26T17:38:35.961Z,100056.66
2023-02-26T17:41:05.166Z,100062.41
2023-02-26T17:43:33.807Z,100076.41
2023-02-26T17:46:02.579Z,100075.03
2023-02-26T17:48:31.266Z,100084.97
2023-02-26T17:50:59.901Z,100083.41
2023-02-26T17:53:28.315Z,100081.19
2023-02-26T17:55:57.622Z,100095.47
2023-02-26T17:58:30.638Z,100092.41
2023-02-26T18:01:00.001Z,100092.00
2023-02-26T18:03:28.373Z,100101.94
2023-02-26T18:05:57.346Z,100103.63
2023-02-26T18:08:31.843Z,100106.69
2023-02-26T18:11:01.323Z,100099.28
2023-02-26T18:13:30.118Z,100096.34
2023-02-26T18:15:59.144Z,100109.75
2023-02-26T18:18:27.805Z,100116.72
2023-02-26T18:20:56.504Z,100117.28
2023-02-26T18:23:25.994Z,100121.06
2023-02-26T18:25:55.038Z,100125.09
2023-02-26T18:28:28.024Z,100118.50
2023-02-26T18:30:57.590Z,100126.38
2023-02-26T18:33:26.288Z,100126.63
2023-02-26T18:35:56.959Z,100133.22
2023-02-26T18:38:27.920Z,100134.06
2023-02-26T18:40:56.892Z,100124.56
2023-02-26T18:43:25.387Z,100135.06
2023-02-26T18:45:54.270Z,100133.78
2023-02-26T18:48:22.778Z,100138.97
2023-02-26T18:50:51.429Z,100136.03
2023-02-26T18:53:23.621Z,100138.69
2023-02-26T18:55:53.209Z,100137.59
2023-02-26T18:58:22.295Z,100144.44
2023-02-26T19:00:51.652Z,100143.19
2023-02-26T19:03:19.942Z,100147.69
2023-02-26T19:06:03.512Z,100141.09
2023-02-26T19:08:32.327Z,100148.41
2023-02-26T19:11:01.034Z,100154.84
2023-02-26T19:13:29.516Z,100157.63
2023-02-26T19:15:58.292Z,100159.75
2023-02-26T19:18:26.677Z,100160.16
2023-02-26T19:20:55.436Z,100157.09
2023-02-26T19:23:24.225Z,100149.69
2023-02-26T19:25:52.951Z,100176.97
2023-02-26T19:28:21.322Z,100175.00
2023-02-26T19:30:54.640Z,100182.28
2023-02-26T19:33:24.157Z,100180.88
2023-02-26T19:35:53.078Z,100197.97
2023-02-26T19:38:21.436Z,100194.56
2023-02-26T19:40:50.847Z,100197.97
2023-02-26T19:43:19.201Z,100198.34
2023-02-26T19:45:48.097Z,100194.03
2023-02-26T19:48:16.545Z,100201.72
2023-02-26T19:50:45.956Z,100208.88
2023-02-26T19:53:16.305Z,100201.31
2023-02-26T19:55:45.077Z,100201.72
2023-02-26T19:58:14.507Z,100210.41
2023-02-26T20:00:43.337Z,100209.00
2023-02-26T20:03:11.697Z,100223.69
2023-02-26T20:05:40.536Z,100218.66
2023-02-26T20:08:09.067Z,100213.88
2023-02-26T20:10:37.857Z,100225.78
2023-02-26T20:13:11.769Z,100233.53
2023-02-26T20:15:41.257Z,100239.53
2023-02-26T20:18:10.226Z,100241.66
2023-02-26T20:20:47.785Z,100254.69
2023-02-26T20:23:24.892Z,100249.63
2023-02-26T20:25:59.203Z,100245.53
2023-02-26T20:28:35.772Z,100259.13
2023-02-26T20:31:10.861Z,100266.25
2023-02-26T20:33:42.593Z,100263.91
2023-02-26T20:36:15.356Z,100265.00
2023-02-26T20:38:46.861Z,100270.50
2023-02-26T20:41:16.365Z,100272.97
2023-02-26T20:43:46.466Z,100276.06
2023-02-26T20:46:15.521Z,100278.31
2023-02-26T20:48:44.967Z,100290.06
2023-02-26T20:51:16.405Z,100303.38
2023-02-26T20:53:47.022Z,100312.31
2023-02-26T20:56:18.940Z,100307.41
2023-02-26T20:58:47.805Z,100311.06
2023-02-26T21:01:16.433Z,100318.34
2023-02-26T21:03:44.813Z,100319.75
2023-02-26T21:06:13.729Z,100319.28
2023-02-26T21:08:44.077Z,100326.69
2023-02-26T21:11:12.838Z,100322.50
2023-02-26T21:13:41.471Z,100327.00
2023-02-26T21:16:10.384Z,100330.94
2023-02-26T21:18:38.830Z,100337.66
2023-02-26T21:21:07.499Z,100342.56
2023-02-26T21:23:35.868Z,100355.03
2023-02-26T21:26:04.649Z,100356.44
2023-02-26T21:28:33.040Z,100355.75
2023-02-26T21:31:01.965Z,100360.97
2023-02-26T21:33:30.393Z,100367.69
2023-02-26T21:35:59.551Z,100369.13
2023-02-26T21:38:28.392Z,100365.75
2023-02-26T21:40:57.480Z,100371.31
2023-02-26T21:43:25.893Z,100369.66
2023-02-26T21:45:54.751Z,100368.94
2023-02-26T21:48:23.450Z,100372.69
2023-02-26T21:50:52.238Z,100370.16
2023-02-26T21:53:20.839Z,100367.09
2023-02-26T21:55:49.465Z,100370.84
2023-02-26T21:58:17.856Z,100368.34
2023-02-26T22:00:46.879Z,100364.28
2023-02-26T22:03:15.274Z,100370.72
2023-02-26T22:05:44.284Z,100360.19
2023-02-26T22:08:12.661Z,100361.75
2023-02-26T22:10:42.038Z,100363.56
2023-02-26T22:13:10.306Z,100356.09
2023-02-26T22:15:38.859Z,100365.66
2023-02-26T22:18:07.286Z,100365.78
2023-02-26T22:20:36.165Z,100369.81
2023-02-26T22:23:05.013Z,100372.63
2023-02-26T22:25:33.877Z,100372.03
2023-02-26T22:28:02.733Z,100373.44
2023-02-26T22:30:31.381Z,100370.78
2023-02-26T22:32:59.709Z,100377.06
2023-02-26T22:35:28.636Z,100389.66
2023-02-26T22:37:56.913Z,100381.09
2023-02-26T22:40:25.875Z,100382.09
2023-02-26T22:42:54.603Z,100397.19
2023-02-26T22:45:24.087Z,100391.28
2023-02-26T22:47:52.750Z,100404.72
2023-02-26T22:50:21.577Z,100398.25
2023-02-26T22:52:49.907Z,100405.13
2023-02-26T22:55:18.928Z,100404.41
2023-02-26T22:57:47.662Z,100406.34
2023-02-26T23:00:20.870Z,100404.69
2023-02-26T23:02:49.942Z,100425.38
2023-02-26T23:05:20.597Z,100408.72
2023-02-26T23:07:49.429Z,100409.97
2023-02-26T23:10:19.658Z,100404.06
2023-02-26T23:12:48.293Z,100420.72
2023-02-26T23:15:17.246Z,100415.66
2023-02-26T23:17:45.499Z,100412.28
2023-02-26T23:20:14.946Z,100400.50
2023-02-26T23:22:44.034Z,100412.56
2023-02-26T23:25:12.843Z,100420.53
2023-02-26T23:27:41.159Z,100420.78
2023-02-26T23:30:10.573Z,100419.19
2023-02-26T23:32:38.884Z,100417.38
2023-02-26T23:35:07.813Z,100408.75
2023-02-26T23:37:36.386Z,100419.38
2023-02-26T23:40:05.825Z,100417.25
2023-02-26T23:42:34.199Z,100409.56
2023-02-26T23:45:03.225Z,100409.41
2023-02-26T23:47:31.643Z,100406.16
2023-02-26T23:50:00.533Z,100406.31
2023-02-26T23:52:28.820Z,100415.53
2023-02-26T23:54:57.676Z,100417.19
2023-02-26T23:57:26.083Z,100422.63
2023-02-26T23:59:54.842Z,100423.84
